sensor_id;sensor_type;location;lat;lon;timestamp;P1;durP1;ratioP1;P2;durP2;ratioP2
10050;SDS011;5065;46.942;7.432;2022-12-16T00:01:05;3.97;;;3.53;;
10050;SDS011;5065;46.942;7.432;2022-12-16T00:03:33;4.83;;;3.37;;
10050;SDS011;5065;46.942;7.432;2022-12-16T00:06:01;4.20;;;3.40;;
10050;SDS011;5065;46.942;7.432;2022-12-16T00:08:30;3.13;;;2.70;;
10050;SDS011;5065;46.942;7.432;2022-12-16T00:11:01;3.50;;;2.80;;
10050;SDS011;5065;46.942;7.432;2022-12-16T00:13:30;3.67;;;2.83;;
10050;SDS011;5065;46.942;7.432;2022-12-16T00:15:58;3.87;;;2.93;;
10050;SDS011;5065;46.942;7.432;2022-12-16T00:18:29;3.70;;;3.20;;
10050;SDS011;5065;46.942;7.432;2022-12-16T00:20:56;4.30;;;2.90;;
10050;SDS011;5065;46.942;7.432;2022-12-16T00:23:23;5.10;;;3.37;;
10050;SDS011;5065;46.942;7.432;2022-12-16T00:25:51;3.20;;;2.77;;
10050;SDS011;5065;46.942;7.432;2022-12-16T00:28:20;2.97;;;2.60;;
10050;SDS011;5065;46.942;7.432;2022-12-16T00:30:48;3.30;;;2.77;;
10050;SDS011;5065;46.942;7.432;2022-12-16T00:33:16;3.70;;;3.40;;
10050;SDS011;5065;46.942;7.432;2022-12-16T00:35:43;4.13;;;3.23;;
10050;SDS011;5065;46.942;7.432;2022-12-16T00:38:12;3.80;;;2.97;;
10050;SDS011;5065;46.942;7.432;2022-12-16T00:40:40;3.50;;;2.80;;
10050;SDS011;5065;46.942;7.432;2022-12-16T00:43:09;2.90;;;2.60;;
10050;SDS011;5065;46.942;7.432;2022-12-16T00:45:37;3.47;;;2.83;;
10050;SDS011;5065;46.942;7.432;2022-12-16T00:48:05;3.70;;;2.73;;
10050;SDS011;5065;46.942;7.432;2022-12-16T00:50:33;4.47;;;2.90;;
10050;SDS011;5065;46.942;7.432;2022-12-16T00:53:00;4.27;;;2.80;;
10050;SDS011;5065;46.942;7.432;2022-12-16T00:55:28;3.67;;;2.83;;
10050;SDS011;5065;46.942;7.432;2022-12-16T00:57:56;3.93;;;2.97;;
10050;SDS011;5065;46.942;7.432;2022-12-16T01:00:23;3.50;;;3.07;;
10050;SDS011;5065;46.942;7.432;2022-12-16T01:02:52;4.37;;;3.37;;
10050;SDS011;5065;46.942;7.432;2022-12-16T01:05:20;3.90;;;2.67;;
10050;SDS011;5065;46.942;7.432;2022-12-16T01:07:51;3.97;;;2.97;;
10050;SDS011;5065;46.942;7.432;2022-12-16T01:10:19;4.23;;;2.43;;
10050;SDS011;5065;46.942;7.432;2022-12-16T01:12:47;4.47;;;2.83;;
10050;SDS011;5065;46.942;7.432;2022-12-16T01:15:16;3.87;;;2.63;;
10050;SDS011;5065;46.942;7.432;2022-12-16T01:17:46;4.00;;;2.93;;
10050;SDS011;5065;46.942;7.432;2022-12-16T01:20:15;3.20;;;2.90;;
10050;SDS011;5065;46.942;7.432;2022-12-16T01:22:42;8.90;;;3.47;;
10050;SDS011;5065;46.942;7.432;2022-12-16T01:25:10;3.97;;;3.13;;
10050;SDS011;5065;46.942;7.432;2022-12-16T01:27:38;3.13;;;2.60;;
10050;SDS011;5065;46.942;7.432;2022-12-16T01:30:05;2.90;;;2.57;;
10050;SDS011;5065;46.942;7.432;2022-12-16T01:32:34;3.50;;;2.80;;
10050;SDS011;5065;46.942;7.432;2022-12-16T01:35:01;2.90;;;2.70;;
10050;SDS011;5065;46.942;7.432;2022-12-16T01:37:30;4.10;;;2.90;;
10050;SDS011;5065;46.942;7.432;2022-12-16T01:39:58;4.00;;;2.80;;
10050;SDS011;5065;46.942;7.432;2022-12-16T01:42:25;5.90;;;3.50;;
10050;SDS011;5065;46.942;7.432;2022-12-16T01:44:55;4.10;;;3.00;;
10050;SDS011;5065;46.942;7.432;2022-12-16T01:47:23;4.73;;;2.80;;
10050;SDS011;5065;46.942;7.432;2022-12-16T01:49:53;4.00;;;2.80;;
10050;SDS011;5065;46.942;7.432;2022-12-16T01:52:26;3.23;;;2.77;;
10050;SDS011;5065;46.942;7.432;2022-12-16T01:54:59;4.83;;;3.17;;
10050;SDS011;5065;46.942;7.432;2022-12-16T01:57:30;3.53;;;3.00;;
10050;SDS011;5065;46.942;7.432;2022-12-16T02:00:03;3.97;;;2.93;;
10050;SDS011;5065;46.942;7.432;2022-12-16T02:02:31;3.37;;;2.83;;
10050;SDS011;5065;46.942;7.432;2022-12-16T02:04:59;2.77;;;2.47;;
10050;SDS011;5065;46.942;7.432;2022-12-16T02:07:47;3.43;;;2.93;;
10050;SDS011;5065;46.942;7.432;2022-12-16T02:10:26;3.07;;;2.77;;
10050;SDS011;5065;46.942;7.432;2022-12-16T02:13:04;3.73;;;3.17;;
10050;SDS011;5065;46.942;7.432;2022-12-16T02:15:45;3.43;;;3.13;;
10050;SDS011;5065;46.942;7.432;2022-12-16T02:18:25;3.77;;;3.10;;
10050;SDS011;5065;46.942;7.432;2022-12-16T02:21:04;4.10;;;3.70;;
10050;SDS011;5065;46.942;7.432;2022-12-16T02:24:01;5.13;;;3.73;;
10050;SDS011;5065;46.942;7.432;2022-12-16T02:27:02;5.47;;;3.63;;
10050;SDS011;5065;46.942;7.432;2022-12-16T02:30:07;3.87;;;3.10;;
10050;SDS011;5065;46.942;7.432;2022-12-16T02:32:57;4.60;;;3.87;;
10050;SDS011;5065;46.942;7.432;2022-12-16T02:35:37;4.63;;;3.80;;
10050;SDS011;5065;46.942;7.432;2022-12-16T02:38:13;5.43;;;3.77;;
10050;SDS011;5065;46.942;7.432;2022-12-16T02:40:50;3.73;;;3.30;;
10050;SDS011;5065;46.942;7.432;2022-12-16T02:43:27;4.73;;;3.93;;
10050;SDS011;5065;46.942;7.432;2022-12-16T02:46:10;3.93;;;3.53;;
10050;SDS011;5065;46.942;7.432;2022-12-16T02:48:39;4.10;;;3.53;;
10050;SDS011;5065;46.942;7.432;2022-12-16T02:51:06;4.40;;;3.87;;
10050;SDS011;5065;46.942;7.432;2022-12-16T02:53:35;3.60;;;3.30;;
10050;SDS011;5065;46.942;7.432;2022-12-16T02:56:05;3.80;;;3.40;;
10050;SDS011;5065;46.942;7.432;2022-12-16T02:58:44;3.73;;;3.40;;
10050;SDS011;5065;46.942;7.432;2022-12-16T03:01:18;6.20;;;4.07;;
10050;SDS011;5065;46.942;7.432;2022-12-16T03:03:57;6.33;;;3.63;;
10050;SDS011;5065;46.942;7.432;2022-12-16T03:06:29;3.63;;;2.73;;
10050;SDS011;5065;46.942;7.432;2022-12-16T03:08:59;4.10;;;3.27;;
10050;SDS011;5065;46.942;7.432;2022-12-16T03:11:31;4.27;;;3.20;;
10050;SDS011;5065;46.942;7.432;2022-12-16T03:13:59;3.47;;;2.93;;
10050;SDS011;5065;46.942;7.432;2022-12-16T03:16:29;2.67;;;2.33;;
10050;SDS011;5065;46.942;7.432;2022-12-16T03:19:00;3.37;;;2.90;;
10050;SDS011;5065;46.942;7.432;2022-12-16T03:21:31;3.13;;;2.73;;
10050;SDS011;5065;46.942;7.432;2022-12-16T03:24:02;3.10;;;2.40;;
10050;SDS011;5065;46.942;7.432;2022-12-16T03:26:34;3.17;;;2.50;;
10050;SDS011;5065;46.942;7.432;2022-12-16T03:29:06;3.10;;;2.77;;
10050;SDS011;5065;46.942;7.432;2022-12-16T03:31:39;3.13;;;2.73;;
10050;SDS011;5065;46.942;7.432;2022-12-16T03:34:13;2.60;;;2.33;;
10050;SDS011;5065;46.942;7.432;2022-12-16T03:36:52;3.03;;;2.73;;
10050;SDS011;5065;46.942;7.432;2022-12-16T03:39:24;3.37;;;2.50;;
10050;SDS011;5065;46.942;7.432;2022-12-16T03:41:52;3.13;;;2.53;;
10050;SDS011;5065;46.942;7.432;2022-12-16T03:44:22;3.10;;;2.70;;
10050;SDS011;5065;46.942;7.432;2022-12-16T03:46:50;3.27;;;2.80;;
10050;SDS011;5065;46.942;7.432;2022-12-16T03:49:19;2.87;;;2.53;;
10050;SDS011;5065;46.942;7.432;2022-12-16T03:51:47;2.70;;;2.13;;
10050;SDS011;5065;46.942;7.432;2022-12-16T03:54:14;2.57;;;2.33;;
10050;SDS011;5065;46.942;7.432;2022-12-16T03:56:43;2.47;;;2.27;;
10050;SDS011;5065;46.942;7.432;2022-12-16T03:59:10;3.40;;;2.50;;
10050;SDS011;5065;46.942;7.432;2022-12-16T04:01:38;2.97;;;2.40;;
10050;SDS011;5065;46.942;7.432;2022-12-16T04:04:05;2.73;;;2.33;;
10050;SDS011;5065;46.942;7.432;2022-12-16T04:06:33;2.37;;;2.17;;
10050;SDS011;5065;46.942;7.432;2022-12-16T04:09:01;2.53;;;2.33;;
10050;SDS011;5065;46.942;7.432;2022-12-16T04:11:28;2.40;;;2.20;;
10050;SDS011;5065;46.942;7.432;2022-12-16T04:14:12;2.10;;;1.90;;
10050;SDS011;5065;46.942;7.432;2022-12-16T04:16:59;2.40;;;2.00;;
10050;SDS011;5065;46.942;7.432;2022-12-16T04:19:47;1.90;;;1.77;;
10050;SDS011;5065;46.942;7.432;2022-12-16T04:22:34;1.90;;;1.70;;
10050;SDS011;5065;46.942;7.432;2022-12-16T04:25:23;2.27;;;2.07;;
10050;SDS011;5065;46.942;7.432;2022-12-16T04:27:53;2.73;;;1.87;;
10050;SDS011;5065;46.942;7.432;2022-12-16T04:30:22;2.73;;;2.30;;
10050;SDS011;5065;46.942;7.432;2022-12-16T04:32:52;3.63;;;3.00;;
10050;SDS011;5065;46.942;7.432;2022-12-16T04:35:40;3.87;;;2.80;;
10050;SDS011;5065;46.942;7.432;2022-12-16T04:38:26;2.73;;;2.53;;
10050;SDS011;5065;46.942;7.432;2022-12-16T04:41:11;3.43;;;2.50;;
10050;SDS011;5065;46.942;7.432;2022-12-16T04:43:55;2.93;;;2.60;;
10050;SDS011;5065;46.942;7.432;2022-12-16T04:46:40;2.50;;;2.10;;
10050;SDS011;5065;46.942;7.432;2022-12-16T04:49:24;2.63;;;2.43;;
10050;SDS011;5065;46.942;7.432;2022-12-16T04:52:09;4.00;;;2.90;;
10050;SDS011;5065;46.942;7.432;2022-12-16T04:54:57;2.20;;;2.00;;
10050;SDS011;5065;46.942;7.432;2022-12-16T04:57:43;7.40;;;5.07;;
10050;SDS011;5065;46.942;7.432;2022-12-16T05:00:35;9.60;;;6.60;;
10050;SDS011;5065;46.942;7.432;2022-12-16T05:03:21;3.03;;;2.73;;
10050;SDS011;5065;46.942;7.432;2022-12-16T05:06:05;4.10;;;2.67;;
10050;SDS011;5065;46.942;7.432;2022-12-16T05:08:50;2.83;;;2.20;;
10050;SDS011;5065;46.942;7.432;2022-12-16T05:11:36;2.50;;;2.30;;
10050;SDS011;5065;46.942;7.432;2022-12-16T05:14:21;2.93;;;2.50;;
10050;SDS011;5065;46.942;7.432;2022-12-16T05:17:06;3.10;;;2.80;;
10050;SDS011;5065;46.942;7.432;2022-12-16T05:19:49;3.20;;;2.90;;
10050;SDS011;5065;46.942;7.432;2022-12-16T05:22:31;2.87;;;2.37;;
10050;SDS011;5065;46.942;7.432;2022-12-16T05:25:15;2.93;;;2.57;;
10050;SDS011;5065;46.942;7.432;2022-12-16T05:28:02;2.90;;;2.60;;
10050;SDS011;5065;46.942;7.432;2022-12-16T05:30:46;3.00;;;2.70;;
10050;SDS011;5065;46.942;7.432;2022-12-16T05:33:31;3.37;;;2.50;;
10050;SDS011;5065;46.942;7.432;2022-12-16T05:36:16;2.60;;;2.40;;
10050;SDS011;5065;46.942;7.432;2022-12-16T05:39:00;3.03;;;2.70;;
10050;SDS011;5065;46.942;7.432;2022-12-16T05:41:45;2.80;;;2.50;;
10050;SDS011;5065;46.942;7.432;2022-12-16T05:44:31;2.87;;;2.50;;
10050;SDS011;5065;46.942;7.432;2022-12-16T05:47:16;2.83;;;2.37;;
10050;SDS011;5065;46.942;7.432;2022-12-16T05:50:00;3.00;;;2.70;;
10050;SDS011;5065;46.942;7.432;2022-12-16T05:52:49;2.80;;;2.40;;
10050;SDS011;5065;46.942;7.432;2022-12-16T05:55:34;2.97;;;2.40;;
10050;SDS011;5065;46.942;7.432;2022-12-16T05:58:18;2.73;;;2.50;;
10050;SDS011;5065;46.942;7.432;2022-12-16T06:01:05;3.17;;;2.87;;
10050;SDS011;5065;46.942;7.432;2022-12-16T06:03:50;4.97;;;3.93;;
10050;SDS011;5065;46.942;7.432;2022-12-16T06:06:35;2.37;;;2.17;;
10050;SDS011;5065;46.942;7.432;2022-12-16T06:09:19;2.87;;;2.53;;
10050;SDS011;5065;46.942;7.432;2022-12-16T06:12:04;8.90;;;4.07;;
10050;SDS011;5065;46.942;7.432;2022-12-16T06:14:49;2.67;;;2.47;;
10050;SDS011;5065;46.942;7.432;2022-12-16T06:17:35;3.37;;;2.53;;
10050;SDS011;5065;46.942;7.432;2022-12-16T06:20:24;3.30;;;3.00;;
10050;SDS011;5065;46.942;7.432;2022-12-16T06:23:09;2.20;;;2.00;;
10050;SDS011;5065;46.942;7.432;2022-12-16T06:25:53;2.70;;;2.43;;
10050;SDS011;5065;46.942;7.432;2022-12-16T06:28:38;4.20;;;2.37;;
10050;SDS011;5065;46.942;7.432;2022-12-16T06:31:23;4.67;;;4.20;;
10050;SDS011;5065;46.942;7.432;2022-12-16T06:34:09;8.03;;;5.47;;
10050;SDS011;5065;46.942;7.432;2022-12-16T06:36:54;3.47;;;3.17;;
10050;SDS011;5065;46.942;7.432;2022-12-16T06:39:38;10.00;;;8.80;;
10050;SDS011;5065;46.942;7.432;2022-12-16T06:42:23;4.73;;;4.33;;
10050;SDS011;5065;46.942;7.432;2022-12-16T06:45:08;5.00;;;4.43;;
10050;SDS011;5065;46.942;7.432;2022-12-16T06:47:52;7.67;;;5.60;;
10050;SDS011;5065;46.942;7.432;2022-12-16T06:50:38;6.97;;;4.17;;
10050;SDS011;5065;46.942;7.432;2022-12-16T06:53:23;5.27;;;4.00;;
10050;SDS011;5065;46.942;7.432;2022-12-16T06:56:07;4.73;;;2.97;;
10050;SDS011;5065;46.942;7.432;2022-12-16T06:58:52;2.70;;;2.47;;
10050;SDS011;5065;46.942;7.432;2022-12-16T07:01:37;3.37;;;2.53;;
10050;SDS011;5065;46.942;7.432;2022-12-16T07:04:21;2.30;;;2.10;;
10050;SDS011;5065;46.942;7.432;2022-12-16T07:07:07;2.20;;;2.10;;
10050;SDS011;5065;46.942;7.432;2022-12-16T07:09:52;18.40;;;16.50;;
10050;SDS011;5065;46.942;7.432;2022-12-16T07:12:36;8.70;;;8.00;;
10050;SDS011;5065;46.942;7.432;2022-12-16T07:15:21;7.93;;;7.23;;
10050;SDS011;5065;46.942;7.432;2022-12-16T07:18:05;8.20;;;6.80;;
10050;SDS011;5065;46.942;7.432;2022-12-16T07:20:50;5.07;;;3.83;;
10050;SDS011;5065;46.942;7.432;2022-12-16T07:23:38;3.30;;;3.00;;
10050;SDS011;5065;46.942;7.432;2022-12-16T07:26:25;2.90;;;2.70;;
10050;SDS011;5065;46.942;7.432;2022-12-16T07:29:09;2.90;;;2.23;;
10050;SDS011;5065;46.942;7.432;2022-12-16T07:31:54;4.10;;;2.70;;
10050;SDS011;5065;46.942;7.432;2022-12-16T07:34:38;2.67;;;2.47;;
10050;SDS011;5065;46.942;7.432;2022-12-16T07:37:23;4.33;;;3.23;;
10050;SDS011;5065;46.942;7.432;2022-12-16T07:40:09;3.50;;;2.80;;
10050;SDS011;5065;46.942;7.432;2022-12-16T07:42:54;3.63;;;3.30;;
10050;SDS011;5065;46.942;7.432;2022-12-16T07:45:39;5.83;;;3.70;;
10050;SDS011;5065;46.942;7.432;2022-12-16T07:48:23;10.03;;;5.23;;
10050;SDS011;5065;46.942;7.432;2022-12-16T07:51:08;8.67;;;5.40;;
10050;SDS011;5065;46.942;7.432;2022-12-16T07:53:53;10.17;;;6.37;;
10050;SDS011;5065;46.942;7.432;2022-12-16T07:56:38;30.63;;;15.50;;
10050;SDS011;5065;46.942;7.432;2022-12-16T07:59:23;17.30;;;12.30;;
10050;SDS011;5065;46.942;7.432;2022-12-16T08:02:08;8.80;;;5.83;;
10050;SDS011;5065;46.942;7.432;2022-12-16T08:04:53;7.07;;;4.53;;
10050;SDS011;5065;46.942;7.432;2022-12-16T08:07:38;5.33;;;3.63;;
10050;SDS011;5065;46.942;7.432;2022-12-16T08:10:23;17.93;;;11.57;;
10050;SDS011;5065;46.942;7.432;2022-12-16T08:13:09;5.50;;;4.27;;
10050;SDS011;5065;46.942;7.432;2022-12-16T08:15:54;7.20;;;3.63;;
10050;SDS011;5065;46.942;7.432;2022-12-16T08:18:38;5.03;;;4.03;;
10050;SDS011;5065;46.942;7.432;2022-12-16T08:21:23;3.90;;;3.33;;
10050;SDS011;5065;46.942;7.432;2022-12-16T08:24:08;5.13;;;3.23;;
10050;SDS011;5065;46.942;7.432;2022-12-16T08:26:58;2.93;;;2.63;;
10050;SDS011;5065;46.942;7.432;2022-12-16T08:29:44;3.03;;;2.73;;
10050;SDS011;5065;46.942;7.432;2022-12-16T08:32:29;4.17;;;3.67;;
10050;SDS011;5065;46.942;7.432;2022-12-16T08:35:14;3.37;;;3.00;;
10050;SDS011;5065;46.942;7.432;2022-12-16T08:37:59;3.33;;;2.83;;
10050;SDS011;5065;46.942;7.432;2022-12-16T08:40:44;3.37;;;2.93;;
10050;SDS011;5065;46.942;7.432;2022-12-16T08:43:29;3.40;;;2.93;;
10050;SDS011;5065;46.942;7.432;2022-12-16T08:46:16;3.40;;;3.10;;
10050;SDS011;5065;46.942;7.432;2022-12-16T08:49:01;11.60;;;8.27;;
10050;SDS011;5065;46.942;7.432;2022-12-16T08:51:45;8.60;;;4.57;;
10050;SDS011;5065;46.942;7.432;2022-12-16T08:54:30;3.90;;;3.60;;
10050;SDS011;5065;46.942;7.432;2022-12-16T08:57:14;3.87;;;3.47;;
10050;SDS011;5065;46.942;7.432;2022-12-16T08:59:59;4.17;;;3.67;;
10050;SDS011;5065;46.942;7.432;2022-12-16T09:02:45;5.03;;;4.00;;
10050;SDS011;5065;46.942;7.432;2022-12-16T09:05:30;6.37;;;3.80;;
10050;SDS011;5065;46.942;7.432;2022-12-16T09:08:15;5.33;;;4.70;;
10050;SDS011;5065;46.942;7.432;2022-12-16T09:11:14;3.57;;;3.23;;
10050;SDS011;5065;46.942;7.432;2022-12-16T09:13:59;4.70;;;4.17;;
10050;SDS011;5065;46.942;7.432;2022-12-16T09:16:43;7.87;;;4.60;;
10050;SDS011;5065;46.942;7.432;2022-12-16T09:19:29;10.63;;;5.37;;
10050;SDS011;5065;46.942;7.432;2022-12-16T09:22:14;12.40;;;4.70;;
10050;SDS011;5065;46.942;7.432;2022-12-16T09:24:59;10.80;;;4.50;;
10050;SDS011;5065;46.942;7.432;2022-12-16T09:27:43;6.90;;;3.17;;
10050;SDS011;5065;46.942;7.432;2022-12-16T09:30:32;6.10;;;3.50;;
10050;SDS011;5065;46.942;7.432;2022-12-16T09:33:17;4.13;;;3.73;;
10050;SDS011;5065;46.942;7.432;2022-12-16T09:36:03;4.43;;;4.03;;
10050;SDS011;5065;46.942;7.432;2022-12-16T09:38:48;8.37;;;4.43;;
10050;SDS011;5065;46.942;7.432;2022-12-16T09:41:37;5.67;;;3.90;;
10050;SDS011;5065;46.942;7.432;2022-12-16T09:44:29;7.07;;;3.50;;
10050;SDS011;5065;46.942;7.432;2022-12-16T09:47:24;4.40;;;4.00;;
10050;SDS011;5065;46.942;7.432;2022-12-16T09:50:18;27.00;;;15.50;;
10050;SDS011;5065;46.942;7.432;2022-12-16T09:53:07;9.00;;;7.23;;
10050;SDS011;5065;46.942;7.432;2022-12-16T09:55:55;6.53;;;4.40;;
10050;SDS011;5065;46.942;7.432;2022-12-16T09:58:42;5.40;;;4.90;;
10050;SDS011;5065;46.942;7.432;2022-12-16T10:01:33;7.70;;;4.70;;
10050;SDS011;5065;46.942;7.432;2022-12-16T10:04:19;5.33;;;4.53;;
10050;SDS011;5065;46.942;7.432;2022-12-16T10:07:04;4.37;;;3.97;;
10050;SDS011;5065;46.942;7.432;2022-12-16T10:09:57;6.27;;;5.07;;
10050;SDS011;5065;46.942;7.432;2022-12-16T10:12:46;6.00;;;5.40;;
10050;SDS011;5065;46.942;7.432;2022-12-16T10:15:39;5.83;;;4.57;;
10050;SDS011;5065;46.942;7.432;2022-12-16T10:18:42;5.07;;;4.67;;
10050;SDS011;5065;46.942;7.432;2022-12-16T10:21:35;7.93;;;6.13;;
10050;SDS011;5065;46.942;7.432;2022-12-16T10:24:29;8.30;;;6.73;;
10050;SDS011;5065;46.942;7.432;2022-12-16T10:27:22;6.57;;;5.60;;
10050;SDS011;5065;46.942;7.432;2022-12-16T10:30:12;6.27;;;5.57;;
10050;SDS011;5065;46.942;7.432;2022-12-16T10:32:58;7.40;;;5.33;;
10050;SDS011;5065;46.942;7.432;2022-12-16T10:35:44;7.47;;;6.50;;
10050;SDS011;5065;46.942;7.432;2022-12-16T10:38:34;6.57;;;5.77;;
10050;SDS011;5065;46.942;7.432;2022-12-16T10:41:21;7.00;;;6.30;;
10050;SDS011;5065;46.942;7.432;2022-12-16T10:44:13;7.47;;;6.53;;
10050;SDS011;5065;46.942;7.432;2022-12-16T10:47:03;8.57;;;6.73;;
10050;SDS011;5065;46.942;7.432;2022-12-16T10:49:52;11.80;;;8.43;;
10050;SDS011;5065;46.942;7.432;2022-12-16T10:52:43;11.00;;;8.73;;
10050;SDS011;5065;46.942;7.432;2022-12-16T10:55:34;9.83;;;7.77;;
10050;SDS011;5065;46.942;7.432;2022-12-16T10:58:35;9.03;;;7.43;;
10050;SDS011;5065;46.942;7.432;2022-12-16T11:01:29;8.37;;;7.33;;
10050;SDS011;5065;46.942;7.432;2022-12-16T11:04:26;8.83;;;7.00;;
10050;SDS011;5065;46.942;7.432;2022-12-16T11:07:26;8.93;;;7.87;;
10050;SDS011;5065;46.942;7.432;2022-12-16T11:13:23;10.90;;;8.13;;
10050;SDS011;5065;46.942;7.432;2022-12-16T11:16:13;10.67;;;8.23;;
10050;SDS011;5065;46.942;7.432;2022-12-16T11:19:00;10.27;;;8.00;;
10050;SDS011;5065;46.942;7.432;2022-12-16T11:21:45;9.50;;;8.37;;
10050;SDS011;5065;46.942;7.432;2022-12-16T11:24:30;14.07;;;9.27;;
10050;SDS011;5065;46.942;7.432;2022-12-16T11:27:20;11.53;;;9.00;;
10050;SDS011;5065;46.942;7.432;2022-12-16T11:30:17;12.43;;;9.50;;
10050;SDS011;5065;46.942;7.432;2022-12-16T11:33:10;36.73;;;24.07;;
10050;SDS011;5065;46.942;7.432;2022-12-16T11:36:06;9.30;;;8.10;;
10050;SDS011;5065;46.942;7.432;2022-12-16T11:38:56;8.87;;;7.93;;
10050;SDS011;5065;46.942;7.432;2022-12-16T11:41:42;10.30;;;9.17;;
10050;SDS011;5065;46.942;7.432;2022-12-16T11:44:32;10.73;;;8.90;;
10050;SDS011;5065;46.942;7.432;2022-12-16T11:47:21;14.27;;;9.07;;
10050;SDS011;5065;46.942;7.432;2022-12-16T11:50:15;10.40;;;9.13;;
10050;SDS011;5065;46.942;7.432;2022-12-16T11:53:03;12.00;;;9.07;;
10050;SDS011;5065;46.942;7.432;2022-12-16T11:55:59;11.23;;;8.57;;
10050;SDS011;5065;46.942;7.432;2022-12-16T11:58:50;33.63;;;22.77;;
10050;SDS011;5065;46.942;7.432;2022-12-16T12:01:44;14.10;;;10.10;;
10050;SDS011;5065;46.942;7.432;2022-12-16T12:04:36;12.67;;;9.63;;
10050;SDS011;5065;46.942;7.432;2022-12-16T12:07:23;14.17;;;10.97;;
10050;SDS011;5065;46.942;7.432;2022-12-16T12:10:20;114.70;;;63.23;;
10050;SDS011;5065;46.942;7.432;2022-12-16T12:13:33;117.90;;;69.80;;
10050;SDS011;5065;46.942;7.432;2022-12-16T12:16:26;14.20;;;10.93;;
10050;SDS011;5065;46.942;7.432;2022-12-16T12:19:18;13.63;;;10.17;;
10050;SDS011;5065;46.942;7.432;2022-12-16T12:22:08;14.77;;;10.97;;
10050;SDS011;5065;46.942;7.432;2022-12-16T12:24:57;16.17;;;11.10;;
10050;SDS011;5065;46.942;7.432;2022-12-16T12:27:53;15.13;;;10.60;;
10050;SDS011;5065;46.942;7.432;2022-12-16T12:30:46;14.63;;;11.20;;
10050;SDS011;5065;46.942;7.432;2022-12-16T12:33:40;16.03;;;11.23;;
10050;SDS011;5065;46.942;7.432;2022-12-16T12:36:32;13.40;;;10.30;;
10050;SDS011;5065;46.942;7.432;2022-12-16T12:39:28;14.23;;;10.87;;
10050;SDS011;5065;46.942;7.432;2022-12-16T12:42:21;13.80;;;10.73;;
10050;SDS011;5065;46.942;7.432;2022-12-16T12:45:18;16.23;;;11.00;;
10050;SDS011;5065;46.942;7.432;2022-12-16T12:48:21;18.23;;;11.93;;
10050;SDS011;5065;46.942;7.432;2022-12-16T12:51:10;15.07;;;11.43;;
10050;SDS011;5065;46.942;7.432;2022-12-16T12:53:59;24.23;;;16.60;;
10050;SDS011;5065;46.942;7.432;2022-12-16T12:56:51;16.80;;;12.03;;
10050;SDS011;5065;46.942;7.432;2022-12-16T12:59:49;15.27;;;11.53;;
10050;SDS011;5065;46.942;7.432;2022-12-16T13:02:43;16.87;;;12.23;;
10050;SDS011;5065;46.942;7.432;2022-12-16T13:05:32;16.97;;;12.27;;
10050;SDS011;5065;46.942;7.432;2022-12-16T13:08:30;14.87;;;12.20;;
10050;SDS011;5065;46.942;7.432;2022-12-16T13:11:29;15.60;;;11.17;;
10050;SDS011;5065;46.942;7.432;2022-12-16T13:24:33;15.33;;;11.33;;
10050;SDS011;5065;46.942;7.432;2022-12-16T13:27:23;17.73;;;13.00;;
10050;SDS011;5065;46.942;7.432;2022-12-16T13:30:18;15.97;;;12.03;;
10050;SDS011;5065;46.942;7.432;2022-12-16T13:33:06;17.07;;;12.50;;
10050;SDS011;5065;46.942;7.432;2022-12-16T13:36:06;19.13;;;13.47;;
10050;SDS011;5065;46.942;7.432;2022-12-16T13:38:53;17.73;;;12.40;;
10050;SDS011;5065;46.942;7.432;2022-12-16T13:41:57;16.10;;;11.73;;
10050;SDS011;5065;46.942;7.432;2022-12-16T13:44:57;20.20;;;14.47;;
10050;SDS011;5065;46.942;7.432;2022-12-16T13:47:59;20.53;;;14.50;;
10050;SDS011;5065;46.942;7.432;2022-12-16T13:50:49;18.80;;;12.97;;
10050;SDS011;5065;46.942;7.432;2022-12-16T13:53:45;19.93;;;13.97;;
10050;SDS011;5065;46.942;7.432;2022-12-16T13:56:35;17.87;;;12.93;;
10050;SDS011;5065;46.942;7.432;2022-12-16T13:59:23;19.63;;;13.47;;
10050;SDS011;5065;46.942;7.432;2022-12-16T14:02:16;19.13;;;13.67;;
10050;SDS011;5065;46.942;7.432;2022-12-16T14:05:16;21.77;;;13.97;;
10050;SDS011;5065;46.942;7.432;2022-12-16T14:08:03;25.03;;;15.07;;
10050;SDS011;5065;46.942;7.432;2022-12-16T14:10:55;60.30;;;33.70;;
10050;SDS011;5065;46.942;7.432;2022-12-16T14:13:45;45.17;;;28.83;;
10050;SDS011;5065;46.942;7.432;2022-12-16T14:16:38;19.83;;;14.23;;
10050;SDS011;5065;46.942;7.432;2022-12-16T14:19:30;19.43;;;14.20;;
10050;SDS011;5065;46.942;7.432;2022-12-16T14:22:27;18.20;;;13.13;;
10050;SDS011;5065;46.942;7.432;2022-12-16T14:25:25;18.40;;;13.60;;
10050;SDS011;5065;46.942;7.432;2022-12-16T14:28:16;21.23;;;14.57;;
10050;SDS011;5065;46.942;7.432;2022-12-16T14:31:10;17.87;;;14.40;;
10050;SDS011;5065;46.942;7.432;2022-12-16T14:34:00;17.83;;;13.17;;
10050;SDS011;5065;46.942;7.432;2022-12-16T14:36:46;18.83;;;13.93;;
10050;SDS011;5065;46.942;7.432;2022-12-16T14:39:35;22.00;;;15.87;;
10050;SDS011;5065;46.942;7.432;2022-12-16T14:42:23;19.67;;;13.67;;
10050;SDS011;5065;46.942;7.432;2022-12-16T14:45:25;22.67;;;15.40;;
10050;SDS011;5065;46.942;7.432;2022-12-16T14:48:13;21.03;;;14.03;;
10050;SDS011;5065;46.942;7.432;2022-12-16T14:51:16;18.27;;;13.90;;
10050;SDS011;5065;46.942;7.432;2022-12-16T14:54:20;21.80;;;15.37;;
10050;SDS011;5065;46.942;7.432;2022-12-16T14:57:12;25.63;;;16.40;;
10050;SDS011;5065;46.942;7.432;2022-12-16T14:59:59;20.33;;;14.27;;
10050;SDS011;5065;46.942;7.432;2022-12-16T15:02:51;20.60;;;15.33;;
10050;SDS011;5065;46.942;7.432;2022-12-16T15:05:39;20.50;;;15.23;;
10050;SDS011;5065;46.942;7.432;2022-12-16T15:08:25;22.57;;;15.90;;
10050;SDS011;5065;46.942;7.432;2022-12-16T15:11:12;20.20;;;14.20;;
10050;SDS011;5065;46.942;7.432;2022-12-16T15:14:17;21.67;;;15.00;;
10050;SDS011;5065;46.942;7.432;2022-12-16T15:17:15;21.97;;;15.57;;
10050;SDS011;5065;46.942;7.432;2022-12-16T15:20:05;19.57;;;14.40;;
10050;SDS011;5065;46.942;7.432;2022-12-16T15:22:58;24.60;;;16.03;;
10050;SDS011;5065;46.942;7.432;2022-12-16T15:25:46;23.90;;;16.43;;
10050;SDS011;5065;46.942;7.432;2022-12-16T15:28:37;28.17;;;18.10;;
10050;SDS011;5065;46.942;7.432;2022-12-16T15:31:24;21.97;;;15.70;;
10050;SDS011;5065;46.942;7.432;2022-12-16T15:34:19;21.23;;;15.73;;
10050;SDS011;5065;46.942;7.432;2022-12-16T15:37:18;19.67;;;14.40;;
10050;SDS011;5065;46.942;7.432;2022-12-16T15:40:21;20.37;;;15.20;;
10050;SDS011;5065;46.942;7.432;2022-12-16T15:43:24;24.80;;;17.07;;
10050;SDS011;5065;46.942;7.432;2022-12-16T15:46:20;20.40;;;15.03;;
10050;SDS011;5065;46.942;7.432;2022-12-16T15:49:06;23.33;;;15.67;;
10050;SDS011;5065;46.942;7.432;2022-12-16T15:52:02;21.77;;;15.07;;
10050;SDS011;5065;46.942;7.432;2022-12-16T15:55:23;23.17;;;15.60;;
10050;SDS011;5065;46.942;7.432;2022-12-16T15:58:15;19.83;;;14.70;;
10050;SDS011;5065;46.942;7.432;2022-12-16T16:01:06;22.50;;;15.37;;
10050;SDS011;5065;46.942;7.432;2022-12-16T16:03:55;23.63;;;17.27;;
10050;SDS011;5065;46.942;7.432;2022-12-16T16:06:41;25.20;;;17.47;;
10050;SDS011;5065;46.942;7.432;2022-12-16T16:09:34;20.50;;;14.53;;
10050;SDS011;5065;46.942;7.432;2022-12-16T16:12:21;25.03;;;17.10;;
10050;SDS011;5065;46.942;7.432;2022-12-16T16:15:07;22.87;;;16.40;;
10050;SDS011;5065;46.942;7.432;2022-12-16T16:17:54;19.83;;;14.97;;
10050;SDS011;5065;46.942;7.432;2022-12-16T16:20:39;24.57;;;16.43;;
10050;SDS011;5065;46.942;7.432;2022-12-16T16:23:24;20.07;;;14.27;;
10050;SDS011;5065;46.942;7.432;2022-12-16T16:26:11;20.53;;;15.20;;
10050;SDS011;5065;46.942;7.432;2022-12-16T16:28:57;21.43;;;15.03;;
10050;SDS011;5065;46.942;7.432;2022-12-16T16:31:41;22.83;;;15.57;;
10050;SDS011;5065;46.942;7.432;2022-12-16T16:34:40;22.30;;;14.30;;
10050;SDS011;5065;46.942;7.432;2022-12-16T16:37:25;20.03;;;13.97;;
10050;SDS011;5065;46.942;7.432;2022-12-16T16:40:15;22.17;;;15.47;;
10050;SDS011;5065;46.942;7.432;2022-12-16T16:43:05;23.23;;;15.27;;
10050;SDS011;5065;46.942;7.432;2022-12-16T16:45:51;21.23;;;15.07;;
10050;SDS011;5065;46.942;7.432;2022-12-16T16:48:37;20.07;;;13.90;;